Time;durP1;ratioP1;P1;durP2;ratioP2;P2;SDS_P1;SDS_P2;PMS_P1;PMS_P2;Temp;Humidity;BMP_temperature;BMP_pressure;BME280_temperature;BME280_humidity;BME280_pressure;Samples;Min_cycle;Max_cycle;Signal;HPM_P1;HPM_P2
2021/04/16 00:02:19;;;;;;;6.25;5.65;;;;;;;29.51;55.35;101052.06;5106864;27;43732;-26
2021/04/16 00:05:13;;;;;;;6.55;5.90;;;;;;;29.57;55.92;101053.94;5095947;27;43668;-26
2021/04/16 00:07:59;;;;;;;7.88;7.18;;;;;;;29.47;58.95;101054.34;5075398;28;43882;-26
2021/04/16 00:10:48;;;;;;;16.83;9.10;;;;;;;29.16;61.13;101031.44;5107995;27;44379;-27
2021/04/16 00:13:35;;;;;;;10.70;9.63;;;;;;;29.10;63.17;101043.06;5077562;27;43736;-27
2021/04/16 00:16:21;;;;;;;11.07;9.75;;;;;;;28.93;63.67;101031.78;5102850;27;43695;-27
2021/04/16 00:19:10;;;;;;;9.10;8.15;;;;;;;28.91;63.98;101044.63;5098007;27;44715;-28
2021/04/16 00:21:52;;;;;;;8.07;7.55;;;;;;;28.86;63.52;101046.28;5116242;27;43649;-28
2021/04/16 00:24:38;;;;;;;9.57;7.82;;;;;;;28.96;64.74;101052.97;5103391;27;44933;-27
2021/04/16 00:27:21;;;;;;;12.30;7.93;;;;;;;29.05;64.49;101048.25;5059769;28;43591;-27
2021/04/16 00:30:06;;;;;;;28.33;9.18;;;;;;;29.16;64.72;101060.31;5048657;28;44504;-27
2021/04/16 00:32:49;;;;;;;25.70;8.40;;;;;;;29.24;64.67;101062.00;5047847;28;44448;-27
2021/04/16 00:35:35;;;;;;;16.40;7.05;;;;;;;29.32;65.01;101073.44;5152697;27;43633;-27
2021/04/16 00:38:21;;;;;;;13.70;7.47;;;;;;;29.55;63.70;101077.63;5056108;27;44367;-28
2021/04/16 00:41:06;;;;;;;10.90;6.53;;;;;;;29.65;63.26;101079.97;5070024;28;43515;-27
2021/04/16 00:43:49;;;;;;;10.60;6.78;;;;;;;29.70;63.11;101091.84;5067032;28;43558;-27
2021/04/16 00:46:58;;;;;;;18.45;7.68;;;;;;;29.72;63.32;101089.72;5103675;27;43160;-28
2021/04/16 00:49:46;;;;;;;12.70;6.75;;;;;;;29.69;62.65;101073.09;5101697;27;44215;-28
2021/04/16 00:52:33;;;;;;;8.35;6.55;;;;;;;29.69;62.41;101079.34;5094123;27;43739;-27
2021/04/16 00:55:17;;;;;;;7.50;6.80;;;;;;;29.82;62.47;101095.56;5095146;27;43556;-29
2021/04/16 00:58:00;;;;;;;8.82;6.53;;;;;;;29.84;62.45;101109.72;5106901;27;42923;-27
2021/04/16 01:00:44;;;;;;;8.05;6.53;;;;;;;29.91;62.00;101109.72;5101776;27;43589;-28
2021/04/16 01:03:28;;;;;;;8.38;6.50;;;;;;;29.89;62.31;101106.38;5104689;27;43557;-28
2021/04/16 01:06:13;;;;;;;7.55;6.78;;;;;;;29.92;62.26;101110.53;5090277;27;43754;-26
2021/04/16 01:08:56;;;;;;;7.45;6.70;;;;;;;29.93;62.13;101123.03;5101814;27;43703;-27
2021/04/16 01:11:39;;;;;;;11.38;6.40;;;;;;;29.93;62.04;101134.69;5110319;27;44993;-27
2021/04/16 01:14:25;;;;;;;7.30;6.35;;;;;;;29.92;62.76;101137.59;5109842;27;43752;-28
2021/04/16 01:17:08;;;;;;;6.72;6.18;;;;;;;29.82;62.37;101117.19;5060001;28;43736;-28
2021/04/16 01:19:58;;;;;;;10.93;6.10;;;;;;;29.96;62.31;101130.72;5092677;27;1502887;-27
2021/04/16 01:25:02;;;;;;;6.15;5.70;;;;;;;29.93;62.43;101114.94;5106031;27;44449;-28
2021/04/16 01:27:44;;;;;;;7.63;6.47;;;;;;;29.96;62.34;101120.75;5097032;27;45008;-27
2021/04/16 01:30:31;;;;;;;6.95;6.05;;;;;;;29.87;62.91;101113.06;5061776;28;43718;-27
2021/04/16 01:33:14;;;;;;;7.43;6.20;;;;;;;29.98;62.48;101131.38;5089024;27;44487;-28
2021/04/16 01:35:59;;;;;;;6.28;5.78;;;;;;;30.00;62.66;101135.50;5103540;27;44785;-28
2021/04/16 01:38:44;;;;;;;6.90;6.30;;;;;;;29.88;62.61;101114.72;5111617;27;44394;-29
2021/04/16 01:41:31;;;;;;;6.18;5.57;;;;;;;29.94;62.43;101125.50;5055362;28;43799;-27
2021/04/16 01:44:19;;;;;;;6.53;5.93;;;;;;;29.92;62.18;101133.03;5105635;27;43563;-27
2021/04/16 01:47:07;;;;;;;7.57;6.88;;;;;;;29.93;62.76;101137.38;5090992;27;1499757;-28
2021/04/16 01:49:56;;;;;;;8.27;5.93;;;;;;;30.03;62.75;101158.59;5119925;27;44333;-29
2021/04/16 01:52:40;;;;;;;6.35;5.95;;;;;;;30.01;62.62;101160.69;5110468;27;43708;-28
2021/04/16 01:55:22;;;;;;;6.13;5.53;;;;;;;30.02;62.83;101160.47;5087828;27;1525552;-27
2021/04/16 01:58:05;;;;;;;7.03;5.88;;;;;;;30.02;63.20;101154.25;5057629;28;44951;-27
2021/04/16 02:00:50;;;;;;;6.13;5.57;;;;;;;30.01;62.47;101158.00;5086576;27;44066;-28
2021/04/16 02:03:20;;;;;;;5.88;5.40;;;;;;;30.06;62.87;101155.47;5084736;27;70397;-28
2021/04/16 02:06:03;;;;;;;7.32;6.03;;;;;;;30.06;62.62;101166.28;5108724;27;43745;-28
2021/04/16 02:08:48;;;;;;;6.25;5.65;;;;;;;30.07;62.54;101162.56;5057176;28;43910;-28
2021/04/16 02:11:30;;;;;;;6.13;5.65;;;;;;;30.05;62.75;101164.63;5068605;28;42968;-28
2021/04/16 02:14:16;;;;;;;5.85;5.47;;;;;;;30.09;62.79;101173.16;5109178;27;43767;-27
2021/04/16 02:17:04;;;;;;;6.65;6.10;;;;;;;30.13;62.20;101175.25;5100295;27;43692;-27
2021/04/16 02:19:48;;;;;;;6.88;6.05;;;;;;;30.13;63.01;101172.56;5113567;27;43670;-28
2021/04/16 02:22:32;;;;;;;5.93;5.53;;;;;;;30.18;62.71;101183.59;5095875;27;43415;-27
2021/04/16 02:25:17;;;;;;;6.28;5.78;;;;;;;30.20;62.52;101184.22;5094800;27;44529;-27
2021/04/16 02:28:01;;;;;;;5.60;5.20;;;;;;;30.18;62.37;101182.75;5057921;28;44755;-27
2021/04/16 02:30:46;;;;;;;6.65;5.60;;;;;;;30.19;62.37;101177.13;5097170;27;44457;-26
2021/04/16 02:33:31;;;;;;;6.55;6.05;;;;;;;30.25;62.32;101170.91;5058751;28;43693;-27
2021/04/16 02:36:17;;;;;;;6.88;6.18;;;;;;;30.29;62.43;101179.44;5094191;27;44767;-28
2021/04/16 02:39:01;;;;;;;6.90;6.40;;;;;;;30.31;61.95;101179.22;5103096;27;1504997;-27
2021/04/16 02:41:44;;;;;;;6.47;5.97;;;;;;;30.35;62.11;101177.78;5091096;27;43690;-28
2021/04/16 02:44:14;;;;;;;9.32;6.07;;;;;;;30.40;62.07;101175.28;5054811;28;69600;-28
2021/04/16 02:46:44;;;;;;;6.72;6.07;;;;;;;30.42;61.74;101168.63;5054125;28;66184;-29
2021/04/16 02:49:34;;;;;;;6.43;5.75;;;;;;;30.44;61.76;101165.69;5086356;27;44054;-28
2021/04/16 02:52:05;;;;;;;6.32;5.85;;;;;;;30.31;61.85;101142.16;5093989;27;68883;-28
2021/04/16 02:54:55;;;;;;;6.82;6.22;;;;;;;30.45;62.06;101175.47;5115436;27;44631;-27
2021/04/16 02:57:39;;;;;;;6.25;5.75;;;;;;;30.48;61.93;101166.94;5097697;27;43747;-28
2021/04/16 03:00:13;;;;;;;6.55;6.05;;;;;;;30.53;62.56;101161.69;5093359;27;70227;-27
2021/04/16 03:02:57;;;;;;;6.82;6.32;;;;;;;30.53;62.65;101145.47;5068394;27;44435;-27
2021/04/16 03:05:55;;;;;;;7.20;6.57;;;;;;;30.57;62.63;101149.44;5057063;28;44507;-28
2021/04/16 03:08:39;;;;;;;6.30;5.85;;;;;;;30.60;62.52;101153.59;5111575;27;44465;-28
2021/04/16 03:11:26;;;;;;;10.57;6.22;;;;;;;30.59;62.16;101146.50;5043923;28;44450;-28
2021/04/16 03:14:10;;;;;;;9.23;6.55;;;;;;;30.65;62.05;101143.78;5120379;27;44489;-27
2021/04/16 03:16:40;;;;;;;6.50;6.00;;;;;;;30.67;62.31;101141.69;5108753;27;70165;-27
2021/04/16 03:19:25;;;;;;;6.53;6.00;;;;;;;30.67;62.63;101130.88;5108273;27;43196;-27
2021/04/16 03:22:09;;;;;;;6.45;6.03;;;;;;;30.69;62.94;101131.47;5094599;27;44348;-27
2021/04/16 03:24:52;;;;;;;6.35;5.88;;;;;;;30.72;62.78;101127.50;5062907;28;44268;-28
2021/04/16 03:27:37;;;;;;;6.15;5.80;;;;;;;30.76;62.75;101122.47;5061612;28;42840;-27
2021/04/16 03:30:24;;;;;;;6.82;5.97;;;;;;;30.73;62.36;101119.19;5095411;27;44516;-28
2021/04/16 03:33:10;;;;;;;7.50;6.05;;;;;;;30.82;62.70;101130.63;5019773;28;43497;-27
2021/04/16 03:35:53;;;;;;;6.97;6.38;;;;;;;30.85;62.61;101134.78;5114382;27;43687;-28
2021/04/16 03:38:35;;;;;;;6.18;5.65;;;;;;;30.82;63.06;101121.69;5098189;27;44795;-28
2021/04/16 03:41:19;;;;;;;6.45;6.00;;;;;;;30.89;62.65;101127.88;5114525;27;43695;-28
2021/04/16 03:44:06;;;;;;;6.72;6.32;;;;;;;30.92;62.56;101116.63;5101475;27;44453;-28
2021/04/16 03:46:49;;;;;;;6.97;6.30;;;;;;;30.95;63.03;101124.31;5072470;28;44084;-29
2021/04/16 03:49:36;;;;;;;7.15;6.53;;;;;;;30.99;62.39;101109.31;5066103;28;44363;-28
2021/04/16 03:52:28;;;;;;;6.28;5.82;;;;;;;30.93;62.45;101102.88;5116524;27;44780;-28
2021/04/16 03:55:15;;;;;;;7.28;5.85;;;;;;;30.91;62.47;101087.88;5115470;27;43639;-27
2021/04/16 03:58:13;;;;;;;5.82;5.43;;;;;;;31.05;62.53;101113.84;4997106;27;4270890;-27
2021/04/16 04:00:56;;;;;;;6.45;5.82;;;;;;;31.09;62.84;101101.56;5115245;27;44429;-27
2021/04/16 04:03:39;;;;;;;6.60;6.00;;;;;;;31.13;62.29;101102.78;5116463;27;43576;-28
2021/04/16 04:06:24;;;;;;;6.53;6.13;;;;;;;31.17;62.18;101092.31;5115967;27;43963;-29
2021/04/16 04:09:06;;;;;;;6.35;5.95;;;;;;;31.21;62.50;101098.16;5113661;27;44408;-27
2021/04/16 04:11:52;;;;;;;6.70;6.10;;;;;;;31.22;62.05;101100.63;5113932;27;44538;-26
2021/04/16 04:14:34;;;;;;;6.20;5.75;;;;;;;31.26;61.90;101101.88;5109975;27;43738;-27
2021/04/16 04:17:35;;;;;;;6.47;6.07;;;;;;;31.28;61.96;101093.50;5113895;27;44388;-28
2021/04/16 04:20:22;;;;;;;6.30;5.90;;;;;;;31.23;62.11;101075.22;5056708;27;44256;-28
2021/04/16 04:23:05;;;;;;;6.53;5.97;;;;;;;31.32;61.69;101090.16;5061259;28;44323;-27
2021/04/16 04:25:49;;;;;;;7.65;5.60;;;;;;;31.34;62.16;101082.66;5110047;27;43638;-28
2021/04/16 04:28:32;;;;;;;5.97;5.50;;;;;;;31.37;62.06;101076.81;5068312;28;44243;-29
2021/04/16 04:31:14;;;;;;;6.00;5.60;;;;;;;31.39;61.99;101063.84;5115716;27;44512;-28
2021/04/16 04:33:59;;;;;;;6.38;5.88;;;;;;;31.44;62.10;101059.66;5116465;27;43645;-27
2021/04/16 04:36:42;;;;;;;5.85;5.50;;;;;;;31.46;61.58;101050.25;5069229;28;44438;-27
2021/04/16 04:39:31;;;;;;;6.00;5.63;;;;;;;31.42;61.50;101032.75;5099918;27;1504071;-28
2021/04/16 04:42:04;;;;;;;5.63;5.30;;;;;;;31.44;61.89;101038.81;5115831;27;70201;-28
2021/04/16 04:44:51;;;;;;;5.57;5.07;;;;;;;31.56;61.82;101042.44;5106237;27;43661;-30
2021/04/16 04:47:33;;;;;;;7.60;6.00;;;;;;;31.58;61.37;101043.06;5057348;27;43654;-26
2021/04/16 04:50:16;;;;;;;5.97;5.57;;;;;;;31.63;61.58;101036.16;5105608;27;43653;-28
2021/04/16 04:53:01;;;;;;;5.80;5.40;;;;;;;31.65;61.24;101034.88;5110765;27;43840;-28
2021/04/16 04:55:45;;;;;;;6.53;5.43;;;;;;;31.66;61.48;101022.97;5094155;27;43696;-28
2021/04/16 04:58:29;;;;;;;5.93;5.53;;;;;;;31.71;61.63;101022.31;5099954;27;1494813;-27
2021/04/16 05:01:14;;;;;;;6.38;5.97;;;;;;;31.75;61.17;101023.53;5096152;27;42844;-28
2021/04/16 05:03:59;;;;;;;6.03;5.63;;;;;;;31.78;61.14;101001.38;5114692;27;44617;-28
2021/04/16 05:06:45;;;;;;;6.72;6.03;;;;;;;31.80;61.13;101000.09;5169443;27;43744;-27
2021/04/16 05:09:28;;;;;;;5.70;5.30;;;;;;;31.87;61.27;100988.34;5113740;27;43721;-27
2021/04/16 05:12:13;;;;;;;6.20;5.55;;;;;;;31.89;60.70;100992.50;5107609;27;43192;-27
2021/04/16 05:15:02;;;;;;;5.85;5.45;;;;;;;31.93;61.30;100987.47;5134236;27;44443;-27
2021/04/16 05:17:46;;;;;;;6.20;5.75;;;;;;;31.94;60.75;100979.13;5080422;27;43523;-27
2021/04/16 05:20:30;;;;;;;5.40;4.88;;;;;;;31.96;61.38;100977.03;5108189;27;43980;-27
2021/04/16 05:23:14;;;;;;;5.75;5.40;;;;;;;32.01;60.81;100974.47;5115957;27;43604;-26
2021/04/16 05:25:57;;;;;;;6.07;5.68;;;;;;;32.05;60.91;100967.53;5096094;27;43675;-28
2021/04/16 05:28:42;;;;;;;6.43;6.00;;;;;;;32.09;60.22;100967.88;5062454;28;44424;-28
2021/04/16 05:31:26;;;;;;;5.63;5.22;;;;;;;32.13;60.89;100957.44;5108321;27;43639;-28
2021/04/16 05:34:12;;;;;;;7.00;6.15;;;;;;;32.17;60.95;100955.91;5116017;27;43724;-26
2021/04/16 05:36:56;;;;;;;6.07;5.65;;;;;;;32.18;60.52;100946.69;5115491;27;44472;-27
2021/04/16 05:39:38;;;;;;;4.95;4.75;;;;;;;32.22;60.66;100942.47;5105579;27;44377;-28
2021/04/16 05:42:22;;;;;;;5.35;5.05;;;;;;;32.22;60.95;100940.59;5055578;28;44835;-27
2021/04/16 05:45:09;;;;;;;6.07;5.63;;;;;;;32.26;60.81;100932.81;5110949;27;43660;-27
2021/04/16 05:47:52;;;;;;;5.72;5.22;;;;;;;32.30;60.21;100928.59;5116563;27;43699;-27
2021/04/16 05:50:39;;;;;;;5.75;5.45;;;;;;;32.34;60.53;100918.94;5135479;27;43718;-28
2021/04/16 05:53:21;;;;;;;5.43;5.13;;;;;;;32.37;60.38;100906.78;5095465;27;1499188;-27
2021/04/16 05:56:09;;;;;;;5.05;4.75;;;;;;;32.38;60.34;100903.84;5103720;27;43691;-27
2021/04/16 05:58:54;;;;;;;5.65;5.30;;;;;;;32.41;60.38;100897.97;5061560;28;44418;-28
2021/04/16 06:01:37;;;;;;;5.45;5.15;;;;;;;32.45;60.26;100890.16;5094679;27;44528;-28
2021/04/16 06:04:29;;;;;;;6.93;5.65;;;;;;;32.41;60.25;100864.56;5075906;27;1492991;-28
2021/04/16 06:07:34;;;;;;;5.85;5.35;;;;;;;32.54;60.09;100874.41;5097683;27;1500316;-28
2021/04/16 06:12:38;;;;;;;5.80;5.40;;;;;;;32.62;60.09;100855.06;5078676;27;1489757;-28
2021/04/16 06:15:26;;;;;;;5.65;5.25;;;;;;;32.63;60.07;100845.88;5059754;28;43912;-30
2021/04/16 06:18:11;;;;;;;9.65;5.40;;;;;;;32.65;59.76;100836.44;5118014;27;43683;-27
2021/04/16 06:20:59;;;;;;;6.05;5.32;;;;;;;32.71;59.76;100834.69;5062331;28;42949;-28
2021/04/16 06:23:42;;;;;;;5.22;4.82;;;;;;;32.73;59.68;100827.09;5099498;27;43730;-28
2021/04/16 06:26:26;;;;;;;5.90;5.50;;;;;;;32.78;59.75;100826.41;5094924;27;44398;-27
2021/04/16 06:29:10;;;;;;;5.22;4.88;;;;;;;32.80;59.52;100803.38;5096943;27;44833;-28
2021/04/16 06:31:54;;;;;;;5.65;5.10;;;;;;;32.84;59.18;100793.69;5105796;27;43556;-28
2021/04/16 06:34:24;;;;;;;6.75;4.90;;;;;;;32.89;59.40;100791.09;5093329;27;70209;-28
2021/04/16 06:36:55;;;;;;;5.03;4.70;;;;;;;32.93;59.30;100780.56;5094042;27;66152;-28
2021/04/16 06:39:24;;;;;;;5.13;4.80;;;;;;;32.98;59.59;100777.97;5094190;27;70535;-28
2021/04/16 06:41:54;;;;;;;5.28;4.95;;;;;;;33.00;59.39;100758.75;5084398;27;66020;-28
2021/04/16 06:44:30;;;;;;;4.55;4.25;;;;;;;32.91;58.86;100729.19;5093627;27;69987;-27
2021/04/16 06:47:12;;;;;;;5.43;5.13;;;;;;;33.10;58.82;100757.09;5095162;27;65962;-29
2021/04/16 06:49:41;;;;;;;5.30;5.00;;;;;;;33.15;58.91;100745.47;5092880;27;70039;-27
2021/04/16 06:52:17;;;;;;;4.88;4.57;;;;;;;33.20;58.63;100732.00;5075979;27;65798;-28
2021/04/16 06:55:02;;;;;;;5.03;4.72;;;;;;;33.24;58.74;100733.19;5073571;27;69830;-28
2021/04/16 06:57:35;;;;;;;5.47;5.07;;;;;;;33.30;58.78;100721.34;5070067;28;66120;-28
2021/04/16 07:00:42;;;;;;;5.10;4.70;;;;;;;33.27;58.21;100716.41;5072225;27;70189;-28
2021/04/16 07:03:28;;;;;;;4.57;4.30;;;;;;;33.36;58.19;100695.09;5068996;27;65868;-28
2021/04/16 07:06:25;;;;;;;4.43;4.20;;;;;;;33.39;58.07;100683.72;5082623;27;69934;-29
2021/04/16 07:09:04;;;;;;;4.80;4.50;;;;;;;33.45;57.93;100679.22;5073117;27;66135;-29
2021/04/16 07:11:40;;;;;;;4.20;4.00;;;;;;;33.48;57.83;100659.69;5074958;27;70095;-29
2021/04/16 07:14:24;;;;;;;4.90;4.50;;;;;;;33.48;58.32;100652.34;5082508;27;65242;-27
2021/04/16 07:16:55;;;;;;;4.95;4.55;;;;;;;33.61;57.94;100654.00;5083805;27;69844;-28
2021/04/16 07:19:27;;;;;;;5.00;4.70;;;;;;;33.63;57.69;100656.44;5090921;27;66086;-28
2021/04/16 07:22:09;;;;;;;4.83;4.53;;;;;;;33.68;57.75;100646.47;5091055;27;69926;-28
2021/04/16 07:24:39;;;;;;;4.05;3.85;;;;;;;33.74;58.03;100642.81;5075292;27;66008;-28
2021/04/16 07:27:15;;;;;;;4.32;4.13;;;;;;;33.76;57.74;100648.81;5083007;27;70530;-29
2021/04/16 07:29:57;;;;;;;4.72;3.70;;;;;;;33.74;57.40;100629.22;5075505;27;66293;-28
2021/04/16 07:32:27;;;;;;;4.88;3.92;;;;;;;33.89;57.45;100641.41;5083671;27;69996;-28
2021/04/16 07:35:23;;;;;;;4.47;4.18;;;;;;;33.94;57.37;100638.78;5078653;27;64287;-28
2021/04/16 07:38:09;;;;;;;4.60;4.30;;;;;;;33.87;57.12;100621.78;5089069;27;69771;-29
2021/04/16 07:40:43;;;;;;;4.65;4.45;;;;;;;33.97;57.17;100619.25;5087281;27;65815;-28
2021/04/16 07:43:50;;;;;;;4.07;3.88;;;;;;;34.05;56.71;100621.56;5030718;28;70493;-28
2021/04/16 07:46:26;;;;;;;4.43;4.13;;;;;;;34.15;56.56;100623.63;5023817;28;65957;-28
2021/04/16 07:49:12;;;;;;;3.63;3.42;;;;;;;34.18;56.70;100623.94;5064549;27;69892;-28
2021/04/16 07:51:45;;;;;;;4.32;4.03;;;;;;;34.19;57.15;100606.56;5063163;28;65862;-28
2021/04/16 07:54:17;;;;;;;4.63;4.28;;;;;;;34.29;56.53;100618.66;5070375;27;69988;-28
2021/04/16 07:56:47;;;;;;;4.50;4.10;;;;;;;34.35;56.04;100623.94;5060493;28;66230;-27
2021/04/16 07:59:17;;;;;;;5.25;4.43;;;;;;;34.40;56.19;100625.88;5046308;28;70480;-27
2021/04/16 08:01:50;;;;;;;4.82;4.50;;;;;;;34.42;56.40;100615.59;5066806;28;66001;-28
2021/04/16 08:04:19;;;;;;;4.50;4.20;;;;;;;34.46;55.79;100622.16;5067034;27;70075;-28
2021/04/16 08:06:52;;;;;;;5.00;3.83;;;;;;;34.49;55.87;100618.94;5058948;28;66552;-29
2021/04/16 08:09:24;;;;;;;4.00;3.80;;;;;;;34.53;55.45;100617.38;5059544;28;70223;-28
2021/04/16 08:12:00;;;;;;;4.53;4.22;;;;;;;34.51;55.74;100608.63;5058241;28;65323;-27
2021/04/16 08:14:33;;;;;;;5.78;3.85;;;;;;;34.59;55.81;100602.78;5059156;28;70026;-28
2021/04/16 08:17:14;;;;;;;3.97;3.78;;;;;;;34.56;55.71;100591.56;5059581;28;66002;-28
2021/04/16 08:19:44;;;;;;;5.70;4.22;;;;;;;34.67;55.60;100599.59;5058714;28;69619;-27
2021/04/16 08:22:29;;;;;;;5.30;3.85;;;;;;;34.69;55.83;100588.47;5057245;28;66226;-28
2021/04/16 08:25:07;;;;;;;4.43;4.13;;;;;;;34.71;54.67;100583.56;5057523;28;70734;-28
2021/04/16 08:27:46;;;;;;;6.07;3.90;;;;;;;34.74;55.23;100574.88;5057147;28;65999;-28
2021/04/16 08:30:47;;;;;;;4.65;4.35;;;;;;;34.77;55.24;100565.38;5053630;28;70278;-28
2021/04/16 08:33:38;;;;;;;4.63;4.20;;;;;;;34.78;55.15;100569.78;5054976;28;66170;-27
2021/04/16 08:36:31;;;;;;;7.25;4.20;;;;;;;34.81;54.88;100561.09;5058115;28;69232;-28
2021/04/16 08:39:22;;;;;;;5.32;3.97;;;;;;;34.75;54.49;100546.59;5059320;28;66114;-27
2021/04/16 08:42:15;;;;;;;5.53;4.10;;;;;;;34.80;54.82;100559.41;5057641;28;68594;-28
2021/04/16 08:44:53;;;;;;;4.32;4.13;;;;;;;34.86;54.80;100558.44;5048605;28;66351;-28
2021/04/16 08:47:32;;;;;;;3.97;3.78;;;;;;;34.84;55.28;100555.94;5057841;28;69868;-28
2021/04/16 08:50:06;;;;;;;4.70;4.40;;;;;;;34.90;55.04;100554.09;5058393;28;65878;-28
2021/04/16 08:52:51;;;;;;;4.15;3.85;;;;;;;34.77;54.86;100538.13;5055519;28;69279;-28
2021/04/16 08:55:27;;;;;;;3.58;3.35;;;;;;;34.95;54.80;100562.34;5058266;28;66450;-28
2021/04/16 08:58:02;;;;;;;5.65;3.63;;;;;;;34.93;54.22;100565.28;5058210;28;70344;-29
2021/04/16 09:00:37;;;;;;;4.10;3.80;;;;;;;34.96;54.95;100572.16;5057536;28;66087;-28
2021/04/16 09:03:19;;;;;;;4.22;3.92;;;;;;;34.92;54.15;100573.75;5058798;28;69834;-28
2021/04/16 09:05:58;;;;;;;4.68;4.20;;;;;;;34.88;54.40;100564.41;5057390;28;66092;-28
2021/04/16 09:08:39;;;;;;;4.72;4.20;;;;;;;34.83;54.19;100561.66;5058264;28;69360;-28
2021/04/16 09:11:11;;;;;;;4.18;3.65;;;;;;;34.80;54.31;100559.41;5058549;28;65921;-28
2021/04/16 09:13:40;;;;;;;4.38;4.03;;;;;;;34.82;54.14;100554.53;5059380;28;69159;-29
2021/04/16 09:17:00;;;;;;;4.22;3.92;;;;;;;34.72;54.51;100557.16;5058380;28;66660;-28
2021/04/16 09:19:30;;;;;;;4.28;3.88;;;;;;;34.79;54.53;100563.22;5058093;28;69944;-28
2021/04/16 09:22:04;;;;;;;4.22;3.92;;;;;;;34.80;54.75;100554.81;5058377;28;65739;-28
2021/04/16 09:24:49;;;;;;;4.18;3.85;;;;;;;34.77;54.27;100559.94;5045250;28;69773;-28
2021/04/16 09:27:25;;;;;;;4.07;3.78;;;;;;;34.83;54.47;100553.47;5058318;28;66242;-28
2021/04/16 09:30:06;;;;;;;4.70;4.30;;;;;;;34.82;54.66;100551.81;5055969;28;70233;-29
2021/04/16 09:32:46;;;;;;;4.35;4.05;;;;;;;34.84;54.38;100550.50;5043120;28;66040;-28
2021/04/16 09:35:19;;;;;;;6.45;4.15;;;;;;;34.86;54.32;100561.16;5056664;28;69925;-28
2021/04/16 09:38:13;;;;;;;3.80;3.60;;;;;;;34.85;53.66;100563.06;5059045;28;65107;-28
2021/04/16 09:40:43;;;;;;;3.92;3.72;;;;;;;34.85;54.10;100567.66;5057228;28;70285;-28
2021/04/16 09:43:27;;;;;;;4.35;4.15;;;;;;;34.76;53.89;100574.66;5058176;28;65727;-28
2021/04/16 09:46:03;;;;;;;5.25;4.47;;;;;;;34.84;54.24;100591.38;5042216;28;69229;-29
2021/04/16 09:48:49;;;;;;;4.57;4.28;;;;;;;34.80;54.38;100592.13;5055140;28;66685;-28
2021/04/16 09:51:28;;;;;;;4.43;4.13;;;;;;;34.83;54.39;100597.91;5056112;28;68525;-29
2021/04/16 09:54:12;;;;;;;4.15;3.95;;;;;;;34.78;54.32;100605.19;5058459;28;65870;-28
2021/04/16 09:57:03;;;;;;;9.32;4.57;;;;;;;34.73;54.25;100605.13;5054922;28;70028;-28
2021/04/16 09:59:43;;;;;;;4.68;4.40;;;;;;;34.81;54.06;100621.03;5057606;28;66457;-28
2021/04/16 10:02:12;;;;;;;4.25;3.95;;;;;;;34.80;54.19;100617.50;5052043;28;69164;-28
2021/04/16 10:05:05;;;;;;;4.53;4.22;;;;;;;34.70;54.20;100617.34;5057123;28;65864;-28
2021/04/16 10:07:51;;;;;;;4.60;4.30;;;;;;;34.62;54.37;100606.88;5042016;28;69944;-28
2021/04/16 10:10:56;;;;;;;4.45;4.13;;;;;;;34.62;54.66;100601.44;5057876;28;66251;-28
2021/04/16 10:13:31;;;;;;;5.20;3.70;;;;;;;34.69;54.25;100621.16;5053073;28;70223;-31
2021/04/16 10:16:15;;;;;;;6.15;4.40;;;;;;;34.68;54.61;100627.66;5050729;28;66501;-28
2021/04/16 10:18:46;;;;;;;5.07;4.78;;;;;;;34.63;54.99;100623.00;5052916;28;70371;-28
2021/04/16 10:21:20;;;;;;;5.22;4.82;;;;;;;34.61;55.18;100632.50;5056009;28;66395;-28
2021/04/16 10:24:25;;;;;;;4.70;4.40;;;;;;;34.50;54.78;100634.22;5055516;28;70120;-30
2021/04/16 10:31:07;;;;;;;5.22;4.82;;;;;;;34.33;54.94;100625.25;5054402;28;69299;-29
2021/04/16 10:57:58;;;;;;;35.60;8.93;;;;;;;33.93;55.16;100678.75;5044020;28;65868;-29
2021/04/16 12:38:56;;;;;;;11.05;9.85;;;;;;;32.45;53.17;100831.25;5102875;27;44422;-28
2021/04/16 12:41:47;;;;;;;12.73;9.90;;;;;;;32.33;52.71;100824.16;5087226;27;43668;-29
2021/04/16 12:44:41;;;;;;;11.73;10.20;;;;;;;32.37;52.21;100842.44;5097602;27;43664;-29
2021/04/16 12:47:57;;;;;;;13.93;10.07;;;;;;;32.29;51.19;100867.25;5106262;27;44784;-30
2021/04/16 12:50:46;;;;;;;11.30;9.02;;;;;;;32.23;50.96;100876.28;5070074;28;43549;-30
2021/04/16 12:53:31;;;;;;;11.48;10.40;;;;;;;32.28;51.43;100887.28;5070998;28;43877;-28
2021/04/16 12:56:18;;;;;;;11.15;9.55;;;;;;;32.22;49.90;100877.34;5070363;28;43626;-30
2021/04/16 12:59:13;;;;;;;12.73;9.48;;;;;;;32.12;49.63;100871.63;5132675;27;44427;-29
2021/04/16 13:02:00;;;;;;;16.02;11.73;;;;;;;32.28;51.57;100887.28;5091152;27;44536;-28
2021/04/16 13:04:46;;;;;;;21.23;12.70;;;;;;;32.30;50.59;100911.50;5089510;27;43640;-29
2021/04/16 13:07:57;;;;;;;15.73;11.35;;;;;;;32.25;50.63;100904.03;5092255;27;43670;-28
2021/04/16 13:10:45;;;;;;;23.42;10.48;;;;;;;32.18;50.90;100912.25;5022768;28;44456;-28
2021/04/16 13:13:41;;;;;;;16.27;10.95;;;;;;;32.15;50.33;100914.59;5097080;27;43697;-29
2021/04/16 13:16:11;;;;;;;15.05;10.93;;;;;;;32.17;49.79;100920.63;5078669;27;69724;-28
2021/04/16 13:18:58;;;;;;;12.80;11.55;;;;;;;32.21;49.29;100932.69;5081565;27;43660;-29
2021/04/16 13:21:45;;;;;;;24.67;12.57;;;;;;;32.01;49.75;100933.78;5125582;27;45208;-29
2021/04/16 13:24:16;;;;;;;16.97;12.53;;;;;;;31.98;49.58;100942.38;5115679;27;70182;-29
2021/04/16 13:27:06;;;;;;;20.15;12.85;;;;;;;31.88;49.36;100958.28;5061953;28;43634;-28
2021/04/16 13:29:59;;;;;;;22.75;12.65;;;;;;;31.86;48.47;100954.97;5059376;28;44433;-27
2021/04/16 13:32:47;;;;;;;26.13;12.68;;;;;;;31.86;49.05;100971.25;5028675;27;44460;-28
2021/04/16 13:35:40;;;;;;;13.25;12.02;;;;;;;31.80;48.40;100969.44;5085897;27;44495;-28
2021/04/16 13:38:27;;;;;;;17.30;12.02;;;;;;;31.79;48.41;100981.34;5091082;27;1491860;-28
2021/04/16 13:41:10;;;;;;;17.15;11.65;;;;;;;31.75;48.60;100980.94;5101650;27;44239;-29
2021/04/16 13:43:58;;;;;;;13.63;11.68;;;;;;;31.72;48.49;100981.41;5054883;28;44553;-28
2021/04/16 13:46:41;;;;;;;12.38;11.23;;;;;;;31.61;47.66;100980.25;5089703;27;43555;-28
2021/04/16 13:49:41;;;;;;;13.60;11.32;;;;;;;31.48;47.53;100974.97;5079628;27;44424;-27
2021/04/16 13:52:27;;;;;;;15.10;11.32;;;;;;;31.48;46.75;100985.81;5118327;27;43642;-27
2021/04/16 13:54:57;;;;;;;12.77;11.45;;;;;;;31.50;46.69;100989.13;5103606;27;70270;-28
2021/04/16 13:57:42;;;;;;;17.52;12.80;;;;;;;31.49;46.81;100987.47;5093921;27;1501641;-28
2021/04/16 14:00:30;;;;;;;15.27;11.75;;;;;;;31.27;46.28;100983.44;5060385;28;43563;-27
2021/04/16 14:03:27;;;;;;;20.70;11.40;;;;;;;31.29;45.88;101003.88;5109854;27;44864;-28
2021/04/16 14:06:16;;;;;;;17.30;11.23;;;;;;;31.32;46.27;101014.25;5089169;27;1528895;-28
2021/04/16 14:08:55;;;;;;;22.30;10.98;;;;;;;31.28;45.50;101017.63;5123719;27;70198;-27
2021/04/16 14:11:33;;;;;;;12.38;11.25;;;;;;;31.31;45.66;101011.75;5124713;27;66581;-28
2021/04/16 14:14:14;;;;;;;15.90;11.05;;;;;;;31.24;45.51;101021.84;5126242;27;70438;-29
2021/04/16 14:16:46;;;;;;;17.02;10.65;;;;;;;31.14;46.07;101006.88;5124887;27;66404;-29
2021/04/16 14:19:23;;;;;;;11.43;10.43;;;;;;;31.19;45.86;101018.94;5108938;27;70310;-31
2021/04/16 14:21:58;;;;;;;11.38;10.25;;;;;;;31.05;45.16;101001.94;5117445;27;64530;-30
2021/04/16 14:24:29;;;;;;;16.40;10.88;;;;;;;31.09;45.29;101022.13;5121783;27;69695;-29
2021/04/16 14:27:01;;;;;;;10.80;9.90;;;;;;;31.10;45.23;101015.69;5124246;27;65180;-31
2021/04/16 14:29:31;;;;;;;10.25;9.30;;;;;;;31.10;45.23;101027.34;5115597;27;69724;-33
2021/04/16 14:32:01;;;;;;;10.50;9.80;;;;;;;31.04;45.63;101022.81;5107886;27;66305;-28
2021/04/16 14:34:34;;;;;;;10.00;9.20;;;;;;;31.06;45.10;101020.69;5123355;27;69868;-28
2021/04/16 14:37:04;;;;;;;10.43;9.40;;;;;;;30.97;45.02;101022.00;5130410;27;65345;-28
2021/04/16 14:39:34;;;;;;;10.15;9.32;;;;;;;31.00;44.97;101013.44;5095240;27;70057;-29
2021/04/16 14:42:05;;;;;;;10.13;9.13;;;;;;;30.96;44.65;101008.69;5116849;27;66104;-29
2021/04/16 14:44:35;;;;;;;9.80;9.18;;;;;;;30.96;44.49;101008.69;5133015;27;69133;-28
2021/04/16 14:47:05;;;;;;;10.15;9.45;;;;;;;30.95;44.58;101010.53;5121738;27;65269;-28